createdAt,value
2018-09-06T00:02:26.117Z,99.90
2018-09-06T00:04:56.669Z,99.90
2018-09-06T00:07:27.888Z,99.90
2018-09-06T00:09:58.488Z,99.90
2018-09-06T00:12:29.157Z,99.90
2018-09-06T00:14:59.796Z,99.90
2018-09-06T00:17:31.118Z,99.90
2018-09-06T00:20:02.411Z,99.90
2018-09-06T00:22:33.142Z,99.90
2018-09-06T00:25:04.423Z,99.90
2018-09-06T00:27:35.472Z,99.90
2018-09-06T00:30:07.632Z,99.90
2018-09-06T00:32:38.449Z,99.90
2018-09-06T00:35:09.379Z,99.90
2018-09-06T00:37:40.504Z,99.90
2018-09-06T00:40:11.564Z,99.90
2018-09-06T00:42:42.441Z,98.00
2018-09-06T00:45:13.620Z,98.70
2018-09-06T00:47:44.859Z,97.10
2018-09-06T00:50:17.415Z,96.80
2018-09-06T00:52:49.880Z,94.20
2018-09-06T00:55:21.713Z,94.00
2018-09-06T00:57:52.444Z,94.20
2018-09-06T01:00:23.105Z,93.50
2018-09-06T01:02:54.244Z,93.70
2018-09-06T01:05:24.982Z,95.20
2018-09-06T01:07:55.749Z,97.40
2018-09-06T01:10:26.398Z,99.10
2018-09-06T01:12:56.937Z,96.00
2018-09-06T01:15:27.621Z,97.80
2018-09-06T01:17:58.712Z,99.90
2018-09-06T01:20:29.689Z,95.70
2018-09-06T01:23:00.896Z,95.70
2018-09-06T01:25:37.171Z,99.90
2018-09-06T01:28:07.901Z,99.90
2018-09-06T01:30:38.788Z,99.90
2018-09-06T01:33:09.483Z,99.90
2018-09-06T01:35:45.582Z,99.90
2018-09-06T01:38:16.819Z,99.90
2018-09-06T01:40:47.504Z,99.90
2018-09-06T01:43:18.580Z,99.90
2018-09-06T01:45:49.334Z,99.90
2018-09-06T01:48:20.182Z,99.90
2018-09-06T01:50:51.430Z,99.90
2018-09-06T01:53:22.394Z,99.90
2018-09-06T01:55:53.404Z,99.90
2018-09-06T01:58:24.354Z,99.90
2018-09-06T02:00:54.649Z,99.90
2018-09-06T02:03:24.785Z,99.90
2018-09-06T02:05:54.936Z,99.90
2018-09-06T02:08:25.756Z,99.90
2018-09-06T02:10:56.432Z,99.90
2018-09-06T02:13:26.820Z,99.90
2018-09-06T02:15:58.100Z,99.90
2018-09-06T02:18:28.794Z,99.90
2018-09-06T02:20:59.702Z,99.90
2018-09-06T02:23:31.068Z,99.90
2018-09-06T02:26:01.897Z,99.90
2018-09-06T02:28:32.450Z,99.90
2018-09-06T02:31:02.661Z,99.90
2018-09-06T02:33:32.733Z,99.90
2018-09-06T02:36:03.640Z,99.90
2018-09-06T02:38:33.722Z,99.90
2018-09-06T02:41:04.653Z,99.90
2018-09-06T02:43:34.913Z,99.90
2018-09-06T02:46:05.624Z,99.90
2018-09-06T02:48:38.887Z,99.90
2018-09-06T02:51:21.472Z,99.90
2018-09-06T02:53:52.232Z,99.90
2018-09-06T02:56:22.496Z,99.90
2018-09-06T02:58:52.944Z,99.90
2018-09-06T03:01:23.620Z,99.90
2018-09-06T03:03:55.139Z,99.90
2018-09-06T03:06:25.693Z,99.90
2018-09-06T03:08:56.300Z,99.90
2018-09-06T03:11:31.138Z,99.90
2018-09-06T03:14:01.878Z,99.90
2018-09-06T03:16:32.678Z,99.90
2018-09-06T03:19:03.520Z,99.90
2018-09-06T03:21:34.513Z,99.90
2018-09-06T03:24:05.008Z,99.90
2018-09-06T03:26:36.309Z,99.90
2018-09-06T03:29:07.004Z,99.90
2018-09-06T03:31:37.206Z,99.90
2018-09-06T03:34:08.153Z,99.90
2018-09-06T03:36:38.775Z,99.90
2018-09-06T03:39:10.546Z,99.90
2018-09-06T03:41:41.224Z,99.90
2018-09-06T03:44:12.136Z,99.90
2018-09-06T03:46:42.484Z,99.90
2018-09-06T03:49:13.301Z,99.90
2018-09-06T03:51:43.414Z,99.90
2018-09-06T03:54:14.582Z,99.90
2018-09-06T03:56:46.064Z,99.90
2018-09-06T03:59:16.519Z,99.90
2018-09-06T04:01:46.909Z,99.90
2018-09-06T04:04:16.912Z,99.90
2018-09-06T04:06:47.103Z,99.90
2018-09-06T04:09:17.715Z,99.90
2018-09-06T04:11:47.791Z,99.90
2018-09-06T04:14:17.922Z,99.90
2018-09-06T04:16:48.203Z,99.90
2018-09-06T04:19:18.609Z,99.90
2018-09-06T04:21:49.603Z,99.90
2018-09-06T04:24:20.411Z,99.90
2018-09-06T04:26:51.367Z,99.90
2018-09-06T04:29:21.999Z,99.90
2018-09-06T04:31:52.643Z,99.90
2018-09-06T04:34:23.360Z,99.90
2018-09-06T04:36:53.540Z,99.90
2018-09-06T04:39:24.122Z,99.90
2018-09-06T04:41:54.237Z,99.90
2018-09-06T04:44:24.354Z,99.90
2018-09-06T04:46:54.851Z,99.90
2018-09-06T04:49:25.229Z,99.90
2018-09-06T04:51:55.467Z,99.90
2018-09-06T04:54:25.780Z,99.90
2018-09-06T04:56:56.415Z,99.90
2018-09-06T04:59:26.809Z,99.90
2018-09-06T05:01:57.062Z,99.90
2018-09-06T05:04:27.596Z,99.90
2018-09-06T05:06:58.027Z,99.90
2018-09-06T05:09:28.354Z,99.90
2018-09-06T05:11:58.684Z,99.90
2018-09-06T05:14:28.882Z,99.90
2018-09-06T05:16:59.885Z,99.90
2018-09-06T05:19:30.132Z,99.90
2018-09-06T05:22:00.757Z,99.90
2018-09-06T05:24:31.123Z,99.90
2018-09-06T05:27:01.312Z,99.90
2018-09-06T05:29:32.254Z,99.90
2018-09-06T05:32:02.996Z,99.90
2018-09-06T05:34:33.013Z,99.90
2018-09-06T05:37:03.716Z,99.90
2018-09-06T05:39:34.498Z,99.90
2018-09-06T05:42:05.033Z,99.90
2018-09-06T05:44:35.710Z,99.90
2018-09-06T05:47:06.802Z,99.90
2018-09-06T05:49:37.141Z,99.90
2018-09-06T05:52:07.650Z,99.90
2018-09-06T05:54:37.639Z,99.90
2018-09-06T05:57:08.748Z,99.90
2018-09-06T05:59:39.714Z,99.90
2018-09-06T06:02:10.542Z,99.90
2018-09-06T06:04:41.491Z,99.90
2018-09-06T06:07:13.039Z,99.90
2018-09-06T06:09:43.691Z,99.90
2018-09-06T06:12:14.677Z,99.90
2018-09-06T06:14:45.330Z,99.90
2018-09-06T06:17:16.028Z,99.90
2018-09-06T06:19:47.158Z,95.80
2018-09-06T06:22:18.216Z,40.00
2018-09-06T06:24:48.960Z,34.30
2018-09-06T06:27:19.604Z,31.60
2018-09-06T06:29:50.229Z,23.50
2018-09-06T06:32:20.932Z,21.90
2018-09-06T06:34:51.649Z,14.20
2018-09-06T06:37:22.304Z,14.00
2018-09-06T06:39:53.127Z,1.00
2018-09-06T06:42:24.095Z,1.00
2018-09-06T06:44:54.689Z,1.00
2018-09-06T06:47:25.577Z,1.00
2018-09-06T06:49:56.076Z,1.00
2018-09-06T06:52:26.802Z,1.00
2018-09-06T06:54:57.310Z,1.00
2018-09-06T06:57:28.098Z,1.00
2018-09-06T06:59:59.018Z,1.00
2018-09-06T07:02:29.540Z,1.00
2018-09-06T07:05:00.108Z,1.00
2018-09-06T07:07:31.117Z,1.00
2018-09-06T07:10:01.747Z,1.00
2018-09-06T07:12:32.532Z,1.00
2018-09-06T07:15:03.230Z,1.00
2018-09-06T07:17:34.142Z,1.00
2018-09-06T07:20:04.738Z,1.00
2018-09-06T07:22:35.226Z,1.00
2018-09-06T07:25:07.275Z,1.00
2018-09-06T07:27:37.950Z,1.00
2018-09-06T07:30:08.937Z,1.00
2018-09-06T07:32:39.745Z,1.00
2018-09-06T07:35:10.418Z,1.00
2018-09-06T07:37:41.125Z,1.00
2018-09-06T07:40:12.260Z,1.00
2018-09-06T07:42:42.845Z,1.00
2018-09-06T07:45:13.386Z,1.00
2018-09-06T07:47:44.107Z,1.00
2018-09-06T07:50:14.672Z,1.00
2018-09-06T07:52:45.656Z,1.00
2018-09-06T07:55:16.599Z,1.00
2018-09-06T07:57:47.318Z,1.00
2018-09-06T08:00:17.934Z,1.00
2018-09-06T08:02:48.455Z,1.00
2018-09-06T08:05:19.568Z,1.00
2018-09-06T08:07:50.464Z,1.00
2018-09-06T08:10:22.383Z,1.00
2018-09-06T08:12:52.938Z,1.00
2018-09-06T08:15:27.639Z,1.00
2018-09-06T08:17:59.303Z,1.00
2018-09-06T08:20:29.994Z,1.00
2018-09-06T08:23:01.949Z,1.00
2018-09-06T08:25:33.713Z,1.00
2018-09-06T08:28:04.945Z,1.00
2018-09-06T08:30:38.267Z,1.00
2018-09-06T08:33:09.450Z,1.00
2018-09-06T08:35:41.338Z,1.00
2018-09-06T08:38:12.851Z,1.00
2018-09-06T08:40:43.731Z,1.00
2018-09-06T08:43:14.577Z,1.00
2018-09-06T08:45:45.573Z,1.00
2018-09-06T08:48:16.420Z,1.00
2018-09-06T08:50:47.044Z,1.00
2018-09-06T08:53:17.787Z,1.00
2018-09-06T08:55:48.397Z,1.00
2018-09-06T08:58:19.378Z,1.00
2018-09-06T09:00:55.213Z,1.00
2018-09-06T09:03:25.823Z,1.00
2018-09-06T09:05:56.588Z,1.00
2018-09-06T09:08:27.639Z,1.00
2018-09-06T09:10:58.360Z,1.00
2018-09-06T09:13:29.370Z,1.00
2018-09-06T11:23:03.998Z,1.00
2018-09-06T19:47:13.662Z,1.00
2018-09-06T20:19:27.716Z,1.00
2018-09-06T20:25:04.908Z,1.00
2018-09-06T20:27:43.750Z,1.00
2018-09-06T20:33:22.341Z,1.00
2018-09-06T21:01:09.217Z,1.00
2018-09-06T21:03:46.260Z,1.00
2018-09-06T21:06:41.842Z,1.00
2018-09-06T21:33:15.619Z,1.00
2018-09-06T21:48:44.691Z,1.00
2018-09-06T21:51:14.992Z,1.00
2018-09-06T21:53:45.440Z,1.00
2018-09-06T21:56:15.819Z,1.00
2018-09-06T21:58:45.946Z,1.00
2018-09-06T22:01:42.502Z,1.00
2018-09-06T22:04:17.900Z,1.00
2018-09-06T22:06:48.067Z,1.00
2018-09-06T22:12:29.054Z,1.00
2018-09-06T22:14:59.212Z,1.00
2018-09-06T22:17:29.857Z,1.00
2018-09-06T22:20:00.992Z,1.00
2018-09-06T22:22:54.722Z,1.00
2018-09-06T22:25:25.146Z,1.00
2018-09-06T22:28:03.023Z,1.00
2018-09-06T22:46:36.581Z,1.00
2018-09-06T22:49:14.032Z,1.00
2018-09-06T22:54:47.728Z,1.00
2018-09-06T22:57:18.124Z,1.00
2018-09-06T22:59:49.131Z,1.00
2018-09-06T23:02:19.729Z,1.00
2018-09-06T23:04:50.639Z,1.00
2018-09-06T23:07:21.713Z,1.00
2018-09-06T23:13:03.030Z,1.00
2018-09-06T23:15:33.577Z,1.00
2018-09-06T23:21:42.614Z,1.00
2018-09-06T23:24:13.487Z,1.00
2018-09-06T23:26:43.868Z,1.00
2018-09-06T23:29:14.272Z,1.00
2018-09-06T23:31:44.932Z,1.00
2018-09-06T23:34:15.520Z,1.00
2018-09-06T23:52:59.098Z,1.00
2018-09-06T23:55:42.394Z,1.00
2018-09-06T23:58:13.332Z,1.00
